Time;durP1;ratioP1;P1;durP2;ratioP2;P2;SDS_P1;SDS_P2;PMS_P1;PMS_P2;Temp;Humidity;BMP_temperature;BMP_pressure;BME280_temperature;BME280_humidity;BME280_pressure;Samples;Min_cycle;Max_cycle;Signal;HPM_P1;HPM_P2
2023/11/10 00:00:34;;;;;;;3.17;2.30;;;6.30;99.90;;;;;;5051790;28;20206;-58
2023/11/10 00:03:01;;;;;;;2.23;2.03;;;6.40;99.90;;;;;;5064462;28;21063;-59
2023/11/10 00:05:26;;;;;;;2.97;2.53;;;6.40;99.90;;;;;;5065729;28;20440;-59
2023/11/10 00:07:54;;;;;;;4.00;2.93;;;6.40;99.90;;;;;;5065615;28;20206;-59
2023/11/10 00:10:19;;;;;;;2.97;2.60;;;6.40;99.90;;;;;;5067559;28;20189;-57
2023/11/10 00:12:45;;;;;;;4.10;2.63;;;6.40;99.90;;;;;;5060271;28;20433;-59
2023/11/10 00:15:10;;;;;;;3.33;3.03;;;6.40;99.90;;;;;;5060933;28;20196;-57
2023/11/10 00:17:36;;;;;;;2.80;2.50;;;6.40;99.90;;;;;;5067792;28;20179;-58
2023/11/10 00:20:02;;;;;;;3.43;2.30;;;6.50;99.90;;;;;;5066818;28;20202;-58
2023/11/10 00:22:31;;;;;;;3.23;2.60;;;6.40;99.90;;;;;;5062978;28;20219;-58
2023/11/10 00:24:56;;;;;;;3.20;2.40;;;6.40;99.90;;;;;;5063021;28;20663;-58
2023/11/10 00:27:22;;;;;;;3.97;2.40;;;6.40;99.90;;;;;;5067950;28;20413;-58
2023/11/10 00:29:48;;;;;;;4.73;2.93;;;6.50;99.90;;;;;;5068542;28;20175;-58
2023/11/10 00:32:13;;;;;;;4.30;2.70;;;6.50;99.90;;;;;;5068419;28;20202;-58
2023/11/10 00:34:40;;;;;;;3.10;2.70;;;6.50;99.90;;;;;;5064049;28;20281;-59
2023/11/10 00:37:06;;;;;;;2.70;2.50;;;6.50;99.90;;;;;;5067552;28;20842;-58
2023/11/10 00:39:31;;;;;;;3.10;2.80;;;6.50;99.90;;;;;;5068168;28;20464;-58
2023/11/10 00:41:58;;;;;;;3.90;3.50;;;6.50;99.90;;;;;;5066370;28;20311;-58
2023/11/10 00:44:23;;;;;;;4.60;3.90;;;6.50;99.90;;;;;;5064768;28;20368;-58
2023/11/10 00:46:50;;;;;;;4.10;3.70;;;6.50;99.90;;;;;;5056638;28;21104;-58
2023/11/10 00:49:16;;;;;;;4.57;4.17;;;6.40;99.90;;;;;;5066369;28;20654;-58
2023/11/10 00:51:43;;;;;;;4.83;4.00;;;6.40;99.90;;;;;;5066916;28;20482;-58
2023/11/10 00:54:08;;;;;;;4.97;4.47;;;6.40;99.90;;;;;;5059627;28;20528;-58
2023/11/10 00:56:34;;;;;;;4.87;4.37;;;6.40;99.90;;;;;;5067069;28;20546;-59
2023/11/10 00:59:00;;;;;;;4.77;4.27;;;6.40;99.90;;;;;;5065006;28;20206;-59
2023/11/10 01:01:27;;;;;;;4.27;3.90;;;6.40;99.90;;;;;;5064405;28;20218;-57
2023/11/10 01:03:53;;;;;;;4.30;3.80;;;6.40;99.90;;;;;;5062090;28;20511;-58
2023/11/10 01:06:18;;;;;;;6.40;4.03;;;6.40;99.90;;;;;;5068342;28;20574;-58
2023/11/10 01:08:44;;;;;;;4.00;3.60;;;6.40;99.90;;;;;;5066348;28;20428;-58
2023/11/10 01:11:10;;;;;;;3.60;2.67;;;6.30;99.90;;;;;;5066158;28;20179;-59
2023/11/10 01:13:36;;;;;;;2.80;2.50;;;6.30;99.90;;;;;;5066827;28;20178;-58
2023/11/10 01:16:01;;;;;;;2.70;2.30;;;6.30;99.90;;;;;;5067611;28;20186;-58
2023/11/10 01:18:28;;;;;;;8.33;2.20;;;6.40;99.90;;;;;;5072483;28;21071;-59
2023/11/10 01:20:55;;;;;;;3.87;2.17;;;6.40;99.90;;;;;;5059805;28;20598;-58
2023/11/10 01:23:20;;;;;;;2.40;2.30;;;6.40;99.90;;;;;;5060593;28;20433;-58
2023/11/10 01:25:47;;;;;;;1.80;1.70;;;6.50;99.90;;;;;;5060552;28;20413;-59
2023/11/10 01:28:13;;;;;;;3.23;2.13;;;6.50;99.90;;;;;;5068364;28;20182;-58
2023/11/10 01:30:38;;;;;;;4.07;3.37;;;6.50;99.90;;;;;;5071582;28;20494;-58
2023/11/10 01:33:07;;;;;;;3.40;2.37;;;6.50;99.90;;;;;;5071008;28;20202;-58
2023/11/10 01:35:33;;;;;;;2.40;2.20;;;6.50;99.90;;;;;;5071436;28;20701;-59
2023/11/10 01:37:58;;;;;;;2.50;2.00;;;6.50;99.90;;;;;;5071055;28;20436;-59
2023/11/10 01:40:24;;;;;;;2.87;2.40;;;6.50;99.90;;;;;;5066919;28;21192;-59
2023/11/10 01:42:50;;;;;;;2.90;2.40;;;6.40;99.90;;;;;;5084635;28;20587;-59
2023/11/10 01:45:15;;;;;;;2.00;1.90;;;6.50;99.90;;;;;;5068295;28;20209;-58
2023/11/10 01:47:45;;;;;;;2.30;2.10;;;6.50;99.90;;;;;;5067255;28;20186;-59
2023/11/10 01:50:11;;;;;;;5.50;2.50;;;6.50;99.90;;;;;;5063843;28;20760;-58
2023/11/10 01:52:38;;;;;;;4.70;2.40;;;6.40;99.90;;;;;;5061998;28;20514;-59
2023/11/10 01:55:06;;;;;;;3.90;2.40;;;6.40;99.90;;;;;;5065848;28;20456;-59
2023/11/10 01:57:32;;;;;;;2.77;2.30;;;6.40;99.90;;;;;;5069788;28;20421;-59
2023/11/10 02:00:01;;;;;;;3.17;2.20;;;6.40;99.90;;;;;;5065014;28;20464;-59
2023/11/10 02:02:27;;;;;;;4.20;2.40;;;6.40;99.90;;;;;;5067631;28;20985;-59
2023/11/10 02:04:53;;;;;;;1.93;1.73;;;6.40;99.90;;;;;;5071104;28;20994;-59
2023/11/10 02:07:19;;;;;;;2.43;2.03;;;6.40;99.90;;;;;;5071157;28;20231;-59
2023/11/10 02:09:44;;;;;;;1.97;1.87;;;6.40;99.90;;;;;;5071212;28;20171;-59
2023/11/10 02:12:10;;;;;;;2.20;2.00;;;6.40;99.90;;;;;;5068128;28;20206;-60
2023/11/10 02:14:35;;;;;;;2.63;2.07;;;6.40;99.90;;;;;;5068698;28;20190;-59
2023/11/10 02:17:01;;;;;;;2.63;2.20;;;6.40;99.90;;;;;;5066094;28;20166;-59
2023/11/10 02:19:27;;;;;;;2.67;2.47;;;6.50;99.90;;;;;;5068270;28;20224;-59
2023/11/10 02:21:53;;;;;;;2.17;2.07;;;6.40;99.90;;;;;;5058903;28;20205;-59
2023/11/10 02:24:23;;;;;;;2.07;1.90;;;6.40;99.90;;;;;;5060872;28;20182;-59
2023/11/10 02:26:48;;;;;;;2.20;2.10;;;6.40;99.90;;;;;;5061588;28;20169;-59
2023/11/10 02:29:15;;;;;;;2.57;2.37;;;6.40;99.90;;;;;;5070595;28;20416;-58
2023/11/10 02:31:41;;;;;;;2.20;2.00;;;6.40;99.90;;;;;;5065966;28;20789;-59
2023/11/10 02:34:07;;;;;;;2.67;2.40;;;6.40;99.90;;;;;;5068851;28;20427;-59
2023/11/10 02:36:34;;;;;;;3.17;2.67;;;6.40;99.90;;;;;;5067345;28;20301;-58
2023/11/10 02:39:00;;;;;;;2.90;2.60;;;6.40;99.90;;;;;;5069988;28;20409;-60
2023/11/10 02:41:25;;;;;;;3.10;2.87;;;6.40;99.90;;;;;;5069645;28;20463;-58
2023/11/10 02:43:51;;;;;;;3.53;2.50;;;6.40;99.90;;;;;;5058545;28;20171;-59
2023/11/10 02:46:18;;;;;;;3.87;2.97;;;6.40;99.90;;;;;;5063413;28;20175;-58
2023/11/10 02:48:43;;;;;;;3.50;2.93;;;6.40;99.90;;;;;;5064173;28;20405;-59
2023/11/10 02:51:09;;;;;;;4.67;2.80;;;6.40;99.90;;;;;;5063169;28;20437;-59
2023/11/10 02:53:35;;;;;;;3.80;3.07;;;6.40;99.90;;;;;;5068854;28;20181;-60
2023/11/10 02:56:01;;;;;;;5.33;3.23;;;6.40;99.90;;;;;;5069072;28;20500;-58
2023/11/10 02:58:29;;;;;;;3.87;2.70;;;6.40;99.90;;;;;;5066338;28;20716;-59
2023/11/10 03:00:54;;;;;;;4.07;2.77;;;6.40;99.90;;;;;;5068379;28;20462;-58
2023/11/10 03:03:20;;;;;;;3.87;3.33;;;6.30;99.90;;;;;;5068258;28;20488;-59
2023/11/10 03:05:46;;;;;;;3.83;3.47;;;6.40;99.90;;;;;;5065176;28;20202;-61
2023/11/10 03:08:12;;;;;;;4.67;3.90;;;6.30;99.90;;;;;;5067024;28;20174;-58
2023/11/10 03:10:37;;;;;;;3.20;2.90;;;6.30;99.90;;;;;;5061282;28;20179;-58
2023/11/10 03:13:03;;;;;;;3.30;3.00;;;6.30;99.90;;;;;;5067703;28;20870;-59
2023/11/10 03:15:29;;;;;;;3.43;2.90;;;6.30;99.90;;;;;;5066593;28;20180;-60
2023/11/10 03:17:56;;;;;;;3.40;3.10;;;6.30;99.90;;;;;;5061849;28;20246;-59
2023/11/10 03:20:23;;;;;;;4.23;3.33;;;6.30;99.90;;;;;;5066294;28;20468;-58
2023/11/10 03:22:49;;;;;;;5.53;3.20;;;6.20;99.90;;;;;;5068813;28;20431;-59
2023/11/10 03:25:15;;;;;;;9.00;3.60;;;6.20;99.90;;;;;;5067247;28;20476;-59
2023/11/10 03:27:40;;;;;;;3.67;3.13;;;6.20;99.90;;;;;;5067892;28;20445;-59
2023/11/10 03:30:06;;;;;;;5.10;3.40;;;6.20;99.90;;;;;;5069186;28;20269;-59
2023/11/10 03:32:32;;;;;;;3.23;2.60;;;6.20;99.90;;;;;;5070110;28;20207;-59
2023/11/10 03:34:58;;;;;;;2.90;2.70;;;6.20;99.90;;;;;;5065069;28;20435;-58
2023/11/10 03:37:23;;;;;;;5.90;2.30;;;6.20;99.90;;;;;;5067175;28;20213;-59
2023/11/10 03:39:50;;;;;;;3.90;2.70;;;6.20;99.90;;;;;;5064250;28;20756;-58
2023/11/10 03:42:15;;;;;;;2.20;1.50;;;6.20;99.90;;;;;;5066283;28;20207;-59
2023/11/10 03:44:41;;;;;;;2.07;1.10;;;6.10;99.90;;;;;;5066663;28;20490;-59
2023/11/10 03:47:07;;;;;;;0.97;0.97;;;6.10;99.90;;;;;;5069946;28;20174;-59
2023/11/10 03:49:34;;;;;;;1.00;0.90;;;6.10;99.90;;;;;;5063704;28;20182;-59
2023/11/10 03:51:59;;;;;;;1.30;0.70;;;6.10;99.90;;;;;;5061371;28;20229;-59
2023/11/10 03:54:25;;;;;;;0.70;0.70;;;6.00;99.90;;;;;;5069937;28;20417;-58
2023/11/10 03:56:51;;;;;;;0.70;0.70;;;6.00;99.90;;;;;;5068014;28;20171;-59
2023/11/10 03:59:16;;;;;;;0.80;0.80;;;6.00;99.90;;;;;;5069344;28;20264;-59
2023/11/10 04:01:42;;;;;;;0.73;0.73;;;6.00;99.90;;;;;;5064374;28;20222;-59
2023/11/10 04:04:08;;;;;;;0.93;0.93;;;5.90;99.90;;;;;;5064435;28;20705;-59
2023/11/10 04:06:34;;;;;;;1.00;0.93;;;6.00;99.90;;;;;;5067514;28;20170;-59
2023/11/10 04:09:00;;;;;;;1.20;1.10;;;5.90;99.90;;;;;;5067526;28;20425;-58
2023/11/10 04:11:27;;;;;;;1.30;0.90;;;5.90;99.90;;;;;;5069506;28;20501;-58
2023/11/10 04:13:53;;;;;;;0.90;0.90;;;5.90;99.90;;;;;;5070530;28;20489;-59
2023/11/10 04:16:23;;;;;;;0.77;0.77;;;5.90;99.90;;;;;;5065437;28;20944;-59
2023/11/10 04:18:53;;;;;;;0.80;0.80;;;5.90;99.90;;;;;;5073215;28;20167;-58
2023/11/10 04:21:20;;;;;;;1.63;0.87;;;5.80;99.90;;;;;;5065743;28;21004;-58
2023/11/10 04:23:46;;;;;;;0.70;0.70;;;5.80;99.90;;;;;;5064861;28;20414;-58
2023/11/10 04:26:13;;;;;;;1.23;0.90;;;5.80;99.90;;;;;;5065362;28;20482;-58
2023/11/10 04:28:39;;;;;;;1.47;0.90;;;5.80;99.90;;;;;;5069310;28;20201;-59
2023/11/10 04:31:05;;;;;;;2.03;0.70;;;5.80;99.90;;;;;;5063612;28;20464;-60
2023/11/10 04:33:31;;;;;;;3.63;1.00;;;5.80;99.90;;;;;;5068206;28;20408;-59
2023/11/10 04:35:57;;;;;;;0.73;0.73;;;5.70;99.90;;;;;;5064956;28;20442;-59
2023/11/10 04:38:23;;;;;;;0.70;0.70;;;5.70;99.90;;;;;;5067561;28;20730;-59
2023/11/10 04:40:52;;;;;;;1.07;0.97;;;5.70;99.90;;;;;;5068560;28;20203;-58
2023/11/10 04:43:18;;;;;;;2.10;0.87;;;5.70;99.90;;;;;;5063272;28;20479;-57
2023/11/10 04:45:44;;;;;;;1.13;0.97;;;5.70;99.90;;;;;;5063205;28;20429;-58
2023/11/10 04:48:10;;;;;;;0.80;0.80;;;5.70;99.90;;;;;;5056755;28;20997;-60
2023/11/10 04:50:35;;;;;;;0.80;0.77;;;5.70;99.90;;;;;;5061070;28;20174;-60
2023/11/10 04:53:01;;;;;;;0.73;0.70;;;5.70;99.90;;;;;;5059559;28;20543;-58
2023/11/10 04:55:27;;;;;;;0.90;0.90;;;5.60;99.90;;;;;;5060957;28;20428;-57
2023/11/10 04:57:52;;;;;;;0.77;0.77;;;5.60;99.90;;;;;;5062949;28;20223;-57
2023/11/10 05:00:20;;;;;;;4.40;0.80;;;5.70;99.90;;;;;;5062643;28;20214;-58
2023/11/10 05:02:46;;;;;;;0.97;0.90;;;5.70;99.90;;;;;;5070421;28;20192;-57
2023/11/10 05:05:15;;;;;;;1.00;0.87;;;5.60;99.90;;;;;;5073194;28;20458;-58
2023/11/10 05:07:41;;;;;;;3.13;0.80;;;5.60;99.90;;;;;;5068451;28;20509;-57
2023/11/10 05:10:08;;;;;;;0.77;0.77;;;5.70;99.90;;;;;;5078327;28;20420;-52
2023/11/10 05:12:37;;;;;;;2.00;1.00;;;5.60;99.90;;;;;;5067889;28;20494;-53
2023/11/10 05:15:07;;;;;;;1.63;1.17;;;5.70;99.90;;;;;;5073122;28;20416;-55
2023/11/10 05:17:39;;;;;;;1.53;1.00;;;5.70;99.90;;;;;;5068918;28;20488;-57
2023/11/10 05:20:12;;;;;;;1.13;0.93;;;5.70;99.90;;;;;;5072283;28;20492;-60
2023/11/10 05:22:40;;;;;;;0.83;0.83;;;5.70;99.90;;;;;;5070322;28;20431;-59
2023/11/10 05:25:06;;;;;;;1.27;1.17;;;5.70;99.90;;;;;;5072145;28;21132;-58
2023/11/10 05:27:32;;;;;;;1.50;1.40;;;5.70;99.90;;;;;;5078549;28;20535;-58
2023/11/10 05:29:58;;;;;;;1.93;1.30;;;5.70;99.90;;;;;;5066674;28;20523;-58
2023/11/10 05:32:23;;;;;;;1.30;1.10;;;5.70;99.90;;;;;;5064955;28;20190;-58
2023/11/10 05:34:53;;;;;;;1.00;0.90;;;5.70;99.90;;;;;;5066602;28;20460;-57
2023/11/10 05:37:19;;;;;;;1.33;1.13;;;5.60;99.90;;;;;;5073071;28;20179;-57
2023/11/10 05:39:46;;;;;;;1.30;1.20;;;5.70;99.90;;;;;;5071490;28;20498;-59
2023/11/10 05:42:13;;;;;;;1.53;1.10;;;5.60;99.90;;;;;;5068879;28;20699;-58
2023/11/10 05:44:38;;;;;;;1.43;0.90;;;5.60;99.90;;;;;;5069010;28;20454;-59
2023/11/10 05:47:04;;;;;;;1.07;0.90;;;5.60;99.90;;;;;;5073620;28;20405;-59
2023/11/10 05:49:30;;;;;;;1.07;1.07;;;5.70;99.90;;;;;;5065713;28;20182;-60
2023/11/10 05:51:55;;;;;;;1.40;1.00;;;5.60;99.90;;;;;;5066162;28;20190;-58
2023/11/10 05:54:21;;;;;;;2.07;0.90;;;5.60;99.90;;;;;;5073556;28;20204;-59
2023/11/10 05:56:46;;;;;;;1.13;1.07;;;5.70;99.90;;;;;;5072646;28;20174;-59
2023/11/10 05:59:12;;;;;;;1.00;0.77;;;5.70;99.90;;;;;;5073649;28;20194;-59
2023/11/10 06:01:37;;;;;;;1.53;0.73;;;5.70;99.90;;;;;;5064675;28;20223;-59
2023/11/10 06:04:04;;;;;;;1.00;0.90;;;5.60;99.90;;;;;;5066124;28;20696;-59
2023/11/10 06:06:30;;;;;;;1.90;1.00;;;5.60;99.90;;;;;;5073483;28;20189;-59
2023/11/10 06:08:56;;;;;;;1.20;1.10;;;5.60;99.90;;;;;;5069757;28;20421;-59
2023/11/10 06:11:22;;;;;;;0.80;0.80;;;5.60;99.90;;;;;;5072567;28;20214;-59
2023/11/10 06:13:49;;;;;;;0.93;0.93;;;5.50;99.90;;;;;;5065112;28;20171;-58
2023/11/10 06:16:19;;;;;;;1.73;1.00;;;5.50;99.90;;;;;;5077792;28;20466;-59
2023/11/10 06:18:45;;;;;;;3.83;1.57;;;5.50;99.90;;;;;;5056698;28;20416;-59
2023/11/10 06:21:14;;;;;;;1.13;0.90;;;5.50;99.90;;;;;;5067923;28;20463;-59
2023/11/10 06:23:39;;;;;;;1.50;1.00;;;5.50;99.90;;;;;;5065916;28;20440;-59
2023/11/10 06:26:06;;;;;;;1.40;1.30;;;5.50;99.90;;;;;;5070070;28;20436;-59
2023/11/10 06:28:32;;;;;;;1.13;1.03;;;5.50;99.90;;;;;;5068594;28;20261;-60
2023/11/10 06:30:58;;;;;;;1.53;1.43;;;5.50;99.90;;;;;;5067775;28;20478;-58
2023/11/10 06:33:24;;;;;;;2.20;1.10;;;5.50;99.90;;;;;;5070600;28;20967;-59
2023/11/10 06:35:50;;;;;;;6.50;1.10;;;5.50;99.90;;;;;;5070434;28;20186;-59
2023/11/10 06:38:15;;;;;;;1.37;1.00;;;5.50;99.90;;;;;;5071671;28;21119;-60
2023/11/10 06:40:41;;;;;;;1.57;1.10;;;5.50;99.90;;;;;;5063060;28;20457;-59
2023/11/10 06:43:07;;;;;;;1.33;1.10;;;5.50;99.90;;;;;;5063016;28;20198;-60
2023/11/10 06:45:32;;;;;;;1.00;0.90;;;5.40;99.90;;;;;;5070663;28;20174;-59
2023/11/10 06:48:03;;;;;;;1.30;1.00;;;5.40;99.90;;;;;;5069075;28;20171;-59
2023/11/10 06:50:32;;;;;;;1.03;0.90;;;5.50;99.90;;;;;;5061150;28;20221;-59
2023/11/10 06:52:58;;;;;;;3.37;1.20;;;5.50;99.90;;;;;;5064902;28;20445;-59
2023/11/10 06:55:24;;;;;;;1.00;0.90;;;5.50;99.90;;;;;;5067827;28;20405;-60
2023/11/10 06:57:50;;;;;;;1.00;1.00;;;5.40;99.90;;;;;;5071721;28;20419;-59
2023/11/10 07:00:17;;;;;;;0.90;0.80;;;5.50;99.90;;;;;;5066883;28;20548;-59
2023/11/10 07:02:43;;;;;;;2.83;1.00;;;5.50;99.90;;;;;;5068208;28;20182;-59
2023/11/10 07:05:09;;;;;;;1.37;0.97;;;5.50;99.90;;;;;;5071740;28;20453;-59
2023/11/10 07:07:36;;;;;;;1.50;1.07;;;5.50;99.90;;;;;;5069047;28;20409;-59
2023/11/10 07:10:02;;;;;;;1.97;1.30;;;5.50;99.90;;;;;;5066332;28;20422;-59
2023/11/10 07:12:28;;;;;;;1.97;1.13;;;5.60;99.90;;;;;;5063338;28;20435;-59
2023/11/10 07:14:53;;;;;;;2.70;1.33;;;5.60;99.90;;;;;;5061476;28;20685;-59
2023/11/10 07:17:19;;;;;;;1.90;1.00;;;5.60;99.90;;;;;;5064364;28;20424;-59
2023/11/10 07:19:45;;;;;;;1.10;1.00;;;5.60;99.90;;;;;;5064385;28;20237;-60
2023/11/10 07:22:11;;;;;;;1.30;1.20;;;5.60;99.90;;;;;;5061744;28;20217;-59
2023/11/10 07:24:37;;;;;;;1.10;1.00;;;5.70;99.90;;;;;;5069393;28;20986;-59
2023/11/10 07:27:07;;;;;;;2.13;1.00;;;5.70;99.90;;;;;;5069907;28;20639;-59
2023/11/10 07:29:36;;;;;;;3.73;1.20;;;5.70;99.90;;;;;;5067354;28;20418;-60
2023/11/10 07:32:02;;;;;;;1.07;1.00;;;5.70;99.90;;;;;;5067221;28;20520;-60
2023/11/10 07:34:29;;;;;;;2.00;1.07;;;5.80;99.90;;;;;;5067538;28;20538;-60
2023/11/10 07:36:54;;;;;;;1.93;1.20;;;5.80;99.90;;;;;;5056288;28;20432;-59
2023/11/10 07:39:21;;;;;;;3.17;1.50;;;5.80;99.90;;;;;;5067981;28;20525;-60
2023/11/10 07:41:47;;;;;;;2.20;1.50;;;5.80;99.90;;;;;;5068940;28;20256;-59
2023/11/10 07:44:13;;;;;;;1.00;0.97;;;5.80;99.90;;;;;;5063465;28;20424;-60
2023/11/10 07:46:39;;;;;;;1.47;1.17;;;5.90;99.90;;;;;;5064225;28;20169;-60
2023/11/10 07:49:05;;;;;;;1.07;0.97;;;5.80;99.90;;;;;;5068235;28;20490;-60
2023/11/10 07:51:31;;;;;;;1.50;1.40;;;5.80;99.90;;;;;;5070606;28;20463;-59
2023/11/10 07:53:57;;;;;;;2.90;1.30;;;5.80;99.90;;;;;;5085407;28;20183;-60
2023/11/10 07:56:23;;;;;;;2.20;1.57;;;5.90;99.90;;;;;;5084044;28;20417;-60
2023/11/10 07:58:48;;;;;;;2.80;1.50;;;5.90;99.90;;;;;;5063284;28;21124;-60
2023/11/10 08:01:14;;;;;;;2.77;1.30;;;5.90;99.90;;;;;;5057993;28;20202;-60
2023/11/10 08:03:42;;;;;;;1.57;1.00;;;6.00;99.90;;;;;;5061211;28;20183;-59
2023/11/10 08:06:09;;;;;;;1.30;1.20;;;6.00;99.90;;;;;;5068497;28;20199;-59
2023/11/10 08:08:36;;;;;;;2.70;1.40;;;6.10;99.90;;;;;;5064026;28;20456;-60
2023/11/10 08:11:02;;;;;;;8.53;2.30;;;6.10;99.90;;;;;;5065076;28;20424;-60
2023/11/10 08:13:27;;;;;;;2.90;2.30;;;6.10;99.90;;;;;;5059063;28;20467;-60
2023/11/10 08:15:53;;;;;;;1.77;0.90;;;6.10;99.90;;;;;;5067438;28;20183;-60
2023/11/10 08:18:21;;;;;;;2.40;0.90;;;6.10;99.90;;;;;;5064931;28;20178;-60
2023/11/10 08:20:47;;;;;;;1.10;1.03;;;6.10;99.90;;;;;;5062993;28;20460;-60
2023/11/10 08:23:14;;;;;;;2.20;1.00;;;6.20;99.90;;;;;;5065486;28;20467;-59
2023/11/10 08:25:41;;;;;;;1.13;0.90;;;6.20;99.90;;;;;;5062693;28;20426;-59
2023/11/10 08:28:08;;;;;;;0.90;0.90;;;6.20;99.90;;;;;;5058126;28;20479;-59
2023/11/10 08:30:34;;;;;;;1.33;1.10;;;6.20;99.90;;;;;;5066851;28;21065;-60
2023/11/10 08:33:00;;;;;;;1.43;1.00;;;6.20;99.90;;;;;;5067940;28;20578;-60
2023/11/10 08:35:26;;;;;;;1.20;0.93;;;6.20;99.90;;;;;;5062432;28;20175;-60
2023/11/10 08:37:51;;;;;;;1.20;1.10;;;6.30;99.90;;;;;;5063925;28;20171;-60
2023/11/10 08:40:17;;;;;;;1.47;1.10;;;6.30;99.90;;;;;;5069311;28;21095;-59
2023/11/10 08:42:43;;;;;;;1.10;1.00;;;6.40;99.90;;;;;;5060354;28;20203;-60
2023/11/10 08:45:11;;;;;;;1.10;1.00;;;6.40;99.90;;;;;;5064412;28;20267;-60
2023/11/10 08:47:39;;;;;;;4.20;1.00;;;6.40;99.90;;;;;;5066652;28;20417;-59
2023/11/10 08:50:09;;;;;;;6.07;1.30;;;6.40;99.90;;;;;;5071385;28;20872;-60
2023/11/10 08:52:37;;;;;;;1.30;1.10;;;6.40;99.90;;;;;;5063517;28;23015;-60
2023/11/10 08:55:02;;;;;;;0.90;0.90;;;6.40;99.90;;;;;;5064694;28;21006;-59
2023/11/10 08:57:30;;;;;;;1.70;0.93;;;6.40;99.90;;;;;;5059004;28;20527;-60
2023/11/10 08:59:56;;;;;;;1.30;1.00;;;6.40;99.90;;;;;;5063615;28;20190;-60
2023/11/10 09:02:23;;;;;;;3.93;1.20;;;6.40;99.90;;;;;;5070155;28;20436;-60
2023/11/10 09:04:48;;;;;;;1.20;1.10;;;6.40;99.90;;;;;;5066372;28;20472;-60
2023/11/10 09:07:14;;;;;;;2.17;1.03;;;6.40;99.90;;;;;;5061616;28;20432;-60
2023/11/10 09:09:40;;;;;;;3.63;1.00;;;6.30;99.90;;;;;;5061573;28;20611;-60
2023/11/10 09:12:06;;;;;;;1.10;1.00;;;6.40;99.90;;;;;;5067040;28;20540;-59
2023/11/10 09:14:33;;;;;;;1.80;1.10;;;6.40;99.90;;;;;;5064497;28;20263;-60
2023/11/10 09:16:59;;;;;;;1.00;0.90;;;6.40;99.90;;;;;;5065524;28;20171;-60
2023/11/10 09:19:24;;;;;;;1.63;0.90;;;6.50;99.90;;;;;;5064154;28;20470;-59
2023/11/10 09:21:50;;;;;;;1.10;1.00;;;6.50;99.90;;;;;;5064841;28;20210;-60
2023/11/10 09:24:16;;;;;;;2.17;1.00;;;6.60;99.90;;;;;;5065648;28;20175;-59
2023/11/10 09:26:43;;;;;;;1.33;1.23;;;6.70;99.90;;;;;;5069353;28;20429;-60
2023/11/10 09:29:09;;;;;;;1.37;1.07;;;6.80;99.90;;;;;;5069581;28;20273;-60
2023/11/10 09:31:34;;;;;;;1.90;1.00;;;6.90;99.90;;;;;;5068688;28;20899;-59
2023/11/10 09:34:00;;;;;;;1.57;0.80;;;7.00;99.90;;;;;;5085322;28;20177;-60
2023/11/10 09:36:26;;;;;;;0.90;0.90;;;7.00;99.90;;;;;;5066762;28;20544;-59
2023/11/10 09:38:52;;;;;;;0.80;0.80;;;7.00;99.90;;;;;;5064802;28;20178;-59
2023/11/10 09:41:23;;;;;;;0.93;0.90;;;7.00;99.90;;;;;;5063548;28;20202;-58
2023/11/10 09:43:50;;;;;;;1.20;1.10;;;7.10;99.90;;;;;;5064189;28;20402;-59
2023/11/10 09:46:19;;;;;;;1.23;1.00;;;7.00;99.90;;;;;;5069120;28;20926;-58
2023/11/10 09:48:44;;;;;;;1.37;1.13;;;6.90;99.90;;;;;;5062114;28;20412;-59
2023/11/10 09:51:14;;;;;;;1.50;1.40;;;6.90;99.90;;;;;;5065597;28;20436;-60
2023/11/10 09:53:41;;;;;;;1.67;1.47;;;6.80;99.90;;;;;;5071091;28;20186;-59
2023/11/10 09:56:07;;;;;;;2.10;1.00;;;6.80;99.90;;;;;;5068273;28;20442;-59
2023/11/10 09:58:34;;;;;;;12.77;1.57;;;6.70;99.90;;;;;;5069947;28;20506;-59
2023/11/10 10:01:01;;;;;;;2.70;1.30;;;6.60;99.90;;;;;;5058795;28;20502;-59
2023/11/10 10:03:28;;;;;;;1.40;1.30;;;6.60;99.90;;;;;;5086102;28;20465;-59
2023/11/10 10:05:54;;;;;;;1.40;1.27;;;6.70;99.90;;;;;;5070858;28;20429;-59
2023/11/10 10:08:20;;;;;;;1.53;1.20;;;6.70;99.90;;;;;;5067006;28;20428;-59
2023/11/10 10:10:52;;;;;;;1.70;1.60;;;6.80;99.90;;;;;;5071119;28;20436;-58
2023/11/10 10:13:19;;;;;;;2.27;1.47;;;6.80;99.90;;;;;;5070981;28;20441;-58
2023/11/10 10:15:45;;;;;;;1.30;1.20;;;7.00;99.90;;;;;;5065451;28;20460;-59
2023/11/10 10:18:11;;;;;;;1.33;1.23;;;7.20;99.90;;;;;;5072950;28;20460;-59
2023/11/10 10:20:40;;;;;;;1.53;1.30;;;7.40;99.90;;;;;;5069818;28;20198;-59
2023/11/10 10:23:09;;;;;;;1.33;1.00;;;7.60;99.90;;;;;;5064809;28;20483;-59
2023/11/10 10:25:35;;;;;;;2.50;1.20;;;7.70;99.90;;;;;;5086598;28;20968;-60
2023/11/10 10:28:02;;;;;;;1.20;1.10;;;7.70;99.90;;;;;;5063116;28;20416;-59
2023/11/10 10:30:27;;;;;;;2.80;0.93;;;7.80;99.90;;;;;;5066662;28;20175;-58
2023/11/10 10:32:54;;;;;;;0.90;0.90;;;7.90;99.90;;;;;;5067965;28;20540;-59
2023/11/10 10:35:21;;;;;;;1.10;1.00;;;7.90;99.90;;;;;;5069864;28;20193;-59
2023/11/10 10:37:53;;;;;;;1.23;1.10;;;7.90;99.90;;;;;;5058291;28;20497;-60
2023/11/10 10:40:19;;;;;;;1.10;1.10;;;7.80;99.90;;;;;;5067485;28;20601;-59
2023/11/10 10:42:45;;;;;;;1.10;1.00;;;7.80;99.90;;;;;;5057637;28;20462;-60
2023/11/10 10:45:12;;;;;;;1.27;1.10;;;7.60;99.90;;;;;;5072293;28;20512;-59
2023/11/10 10:47:39;;;;;;;1.83;1.20;;;7.50;99.90;;;;;;5062858;28;20799;-59
2023/11/10 10:50:10;;;;;;;13.70;1.20;;;7.40;99.90;;;;;;5071102;28;20965;-59
2023/11/10 10:52:36;;;;;;;2.73;1.23;;;7.30;99.90;;;;;;5069689;28;20456;-59
2023/11/10 10:55:05;;;;;;;2.83;1.10;;;7.20;99.90;;;;;;5064861;28;20879;-59
2023/11/10 10:57:33;;;;;;;1.40;1.30;;;7.20;99.90;;;;;;5068056;28;20461;-59
2023/11/10 11:00:05;;;;;;;6.77;2.67;;;7.20;99.90;;;;;;5068342;28;20867;-59
2023/11/10 11:02:35;;;;;;;3.57;2.20;;;7.10;99.90;;;;;;5064867;28;20459;-59
2023/11/10 11:05:22;;;;;;;1.20;0.97;;;7.20;99.90;;;;;;5065757;28;20433;-59
2023/11/10 11:07:57;;;;;;;1.30;1.20;;;7.50;99.90;;;;;;5054014;28;20457;-59
2023/11/10 11:10:56;;;;;;;1.17;1.00;;;7.70;99.90;;;;;;5070117;28;20400;-59
2023/11/10 11:13:46;;;;;;;2.03;1.20;;;8.00;99.90;;;;;;5063034;28;20838;-59
2023/11/10 11:16:46;;;;;;;1.70;1.30;;;8.20;99.90;;;;;;5058550;28;20442;-59
2023/11/10 11:19:25;;;;;;;2.50;1.30;;;8.40;99.90;;;;;;5066806;28;20445;-59
2023/11/10 11:21:52;;;;;;;1.67;1.30;;;8.30;99.90;;;;;;5061316;28;20447;-59
2023/11/10 11:24:25;;;;;;;1.70;1.37;;;8.30;99.90;;;;;;5068331;28;20417;-58
2023/11/10 11:27:06;;;;;;;1.30;1.20;;;8.30;99.90;;;;;;5069332;28;20417;-59
2023/11/10 11:29:39;;;;;;;1.00;1.00;;;8.40;99.90;;;;;;5070424;28;20416;-60
2023/11/10 11:32:09;;;;;;;0.80;0.80;;;8.50;99.90;;;;;;5062666;28;20438;-59
2023/11/10 11:34:35;;;;;;;2.03;1.57;;;8.50;99.90;;;;;;5060137;28;20421;-59
2023/11/10 11:37:07;;;;;;;3.27;1.50;;;8.60;99.90;;;;;;5068768;28;20416;-59
2023/11/10 11:39:34;;;;;;;3.53;1.07;;;8.80;99.90;;;;;;5082253;28;20449;-59
2023/11/10 11:42:05;;;;;;;4.20;1.00;;;8.70;99.90;;;;;;5064804;28;20453;-60
2023/11/10 11:44:38;;;;;;;1.13;1.00;;;8.60;99.90;;;;;;5086027;28;20973;-60
2023/11/10 11:47:10;;;;;;;1.23;1.00;;;8.50;99.90;;;;;;5065548;28;20408;-59
2023/11/10 11:49:40;;;;;;;1.90;1.23;;;8.40;99.90;;;;;;5059322;28;20421;-59
2023/11/10 11:52:11;;;;;;;2.63;1.30;;;8.20;99.90;;;;;;5068014;28;20444;-60
2023/11/10 11:54:36;;;;;;;1.27;1.17;;;8.20;99.90;;;;;;5064941;28;22285;-59
2023/11/10 11:57:02;;;;;;;2.63;1.37;;;8.50;99.90;;;;;;5070131;28;20716;-59
2023/11/10 11:59:28;;;;;;;2.00;1.80;;;8.90;99.90;;;;;;5061163;28;20201;-60
2023/11/10 12:01:55;;;;;;;2.13;1.20;;;9.40;99.90;;;;;;5065449;28;20659;-59
2023/11/10 12:04:24;;;;;;;3.03;1.13;;;9.60;99.90;;;;;;5069830;28;20416;-60
2023/11/10 12:06:50;;;;;;;4.73;1.30;;;9.50;95.80;;;;;;5065381;28;20452;-59
2023/11/10 12:09:18;;;;;;;1.10;1.00;;;9.40;97.40;;;;;;5070214;28;20437;-59
2023/11/10 12:11:46;;;;;;;1.20;1.10;;;9.30;95.50;;;;;;5062755;28;20198;-59
2023/11/10 12:14:12;;;;;;;1.13;1.00;;;9.20;93.70;;;;;;5065214;28;20404;-59
2023/11/10 12:16:42;;;;;;;0.80;0.80;;;9.20;93.00;;;;;;5068015;28;20408;-59
2023/11/10 12:19:12;;;;;;;1.20;1.10;;;9.20;91.30;;;;;;5069035;28;20478;-59
2023/11/10 12:21:38;;;;;;;5.13;1.10;;;9.10;95.30;;;;;;5070686;28;20524;-60
2023/11/10 12:24:06;;;;;;;1.30;1.13;;;9.10;93.60;;;;;;5057671;28;20525;-60
2023/11/10 12:26:40;;;;;;;1.57;1.00;;;8.90;92.40;;;;;;5077388;28;21761;-59
2023/11/10 12:29:09;;;;;;;2.60;1.00;;;8.80;92.00;;;;;;5067290;28;20532;-59
2023/11/10 12:31:35;;;;;;;1.37;0.80;;;8.70;90.60;;;;;;5062920;28;20505;-59
2023/11/10 12:34:04;;;;;;;1.37;0.90;;;8.60;90.50;;;;;;5063938;28;20420;-59
2023/11/10 12:36:34;;;;;;;1.80;1.07;;;8.50;86.10;;;;;;5064624;28;20417;-57
2023/11/10 12:39:01;;;;;;;1.37;1.00;;;8.50;84.70;;;;;;5066921;28;20460;-58
2023/11/10 12:41:29;;;;;;;1.43;1.20;;;8.60;86.50;;;;;;5067147;28;20840;-58
2023/11/10 12:43:55;;;;;;;1.50;0.97;;;8.60;78.00;;;;;;5064985;28;20436;-58
2023/11/10 12:46:21;;;;;;;1.77;1.10;;;8.60;77.80;;;;;;5068156;28;20991;-58
2023/11/10 12:48:50;;;;;;;1.53;0.97;;;8.60;82.20;;;;;;5069494;28;20171;-59
2023/11/10 12:51:15;;;;;;;2.90;1.30;;;8.50;77.50;;;;;;5075697;28;20431;-59
2023/11/10 12:53:41;;;;;;;1.47;0.83;;;8.40;83.10;;;;;;5062169;28;20431;-59
2023/11/10 12:56:07;;;;;;;2.00;1.10;;;8.30;84.50;;;;;;5071621;28;20208;-59